sensor_id;sensor_type;location;lat;lon;timestamp;P1;durP1;ratioP1;P2;durP2;ratioP2
75716;SDS011;64333;50.138;14.332;2023-06-05T00:00:21;3.60;;;1.75;;
75716;SDS011;64333;50.138;14.332;2023-06-05T00:02:46;2.35;;;1.80;;
75716;SDS011;64333;50.138;14.332;2023-06-05T00:05:12;3.90;;;1.83;;
75716;SDS011;64333;50.138;14.332;2023-06-05T00:07:38;2.08;;;1.65;;
75716;SDS011;64333;50.138;14.332;2023-06-05T00:10:04;3.10;;;1.85;;
75716;SDS011;64333;50.138;14.332;2023-06-05T00:12:31;3.63;;;1.80;;
75716;SDS011;64333;50.138;14.332;2023-06-05T00:14:56;3.15;;;1.75;;
75716;SDS011;64333;50.138;14.332;2023-06-05T00:17:21;3.03;;;1.90;;
75716;SDS011;64333;50.138;14.332;2023-06-05T00:19:47;4.53;;;1.90;;
75716;SDS011;64333;50.138;14.332;2023-06-05T00:22:13;2.20;;;1.75;;
75716;SDS011;64333;50.138;14.332;2023-06-05T00:24:38;3.88;;;2.00;;
75716;SDS011;64333;50.138;14.332;2023-06-05T00:27:04;4.43;;;1.85;;
75716;SDS011;64333;50.138;14.332;2023-06-05T00:29:29;2.40;;;1.70;;
75716;SDS011;64333;50.138;14.332;2023-06-05T00:31:55;2.95;;;2.03;;
75716;SDS011;64333;50.138;14.332;2023-06-05T00:34:20;4.00;;;1.90;;
75716;SDS011;64333;50.138;14.332;2023-06-05T00:36:46;1.90;;;1.70;;
75716;SDS011;64333;50.138;14.332;2023-06-05T00:39:15;2.95;;;2.00;;
75716;SDS011;64333;50.138;14.332;2023-06-05T00:41:40;2.90;;;1.90;;
75716;SDS011;64333;50.138;14.332;2023-06-05T00:44:07;2.08;;;1.60;;
75716;SDS011;64333;50.138;14.332;2023-06-05T00:46:32;4.10;;;1.92;;
75716;SDS011;64333;50.138;14.332;2023-06-05T00:48:58;1.83;;;1.60;;
75716;SDS011;64333;50.138;14.332;2023-06-05T00:51:24;3.33;;;1.50;;
75716;SDS011;64333;50.138;14.332;2023-06-05T00:53:50;2.90;;;2.00;;
75716;SDS011;64333;50.138;14.332;2023-06-05T00:56:15;3.45;;;1.80;;
75716;SDS011;64333;50.138;14.332;2023-06-05T00:58:45;4.53;;;1.73;;
75716;SDS011;64333;50.138;14.332;2023-06-05T01:01:12;2.50;;;1.70;;
75716;SDS011;64333;50.138;14.332;2023-06-05T01:03:40;4.13;;;2.00;;
75716;SDS011;64333;50.138;14.332;2023-06-05T01:06:05;4.20;;;1.80;;
75716;SDS011;64333;50.138;14.332;2023-06-05T01:08:31;3.47;;;1.63;;
75716;SDS011;64333;50.138;14.332;2023-06-05T01:14:15;3.22;;;1.58;;
75716;SDS011;64333;50.138;14.332;2023-06-05T01:16:50;4.68;;;1.98;;
75716;SDS011;64333;50.138;14.332;2023-06-05T01:19:22;2.72;;;1.95;;
75716;SDS011;64333;50.138;14.332;2023-06-05T01:21:54;3.95;;;1.98;;
75716;SDS011;64333;50.138;14.332;2023-06-05T01:24:20;4.88;;;1.83;;
75716;SDS011;64333;50.138;14.332;2023-06-05T01:29:50;3.33;;;1.98;;
75716;SDS011;64333;50.138;14.332;2023-06-05T01:32:36;3.35;;;2.20;;
75716;SDS011;64333;50.138;14.332;2023-06-05T01:37:42;3.38;;;2.10;;
75716;SDS011;64333;50.138;14.332;2023-06-05T01:40:12;4.35;;;2.00;;
75716;SDS011;64333;50.138;14.332;2023-06-05T01:42:40;2.30;;;1.83;;
75716;SDS011;64333;50.138;14.332;2023-06-05T01:45:08;2.35;;;1.60;;
75716;SDS011;64333;50.138;14.332;2023-06-05T01:47:35;2.72;;;1.95;;
75716;SDS011;64333;50.138;14.332;2023-06-05T01:50:02;4.05;;;2.10;;
75716;SDS011;64333;50.138;14.332;2023-06-05T01:52:28;2.60;;;1.90;;
75716;SDS011;64333;50.138;14.332;2023-06-05T01:54:54;4.43;;;1.95;;
75716;SDS011;64333;50.138;14.332;2023-06-05T01:57:20;2.92;;;2.13;;
75716;SDS011;64333;50.138;14.332;2023-06-05T01:59:45;2.65;;;2.00;;
75716;SDS011;64333;50.138;14.332;2023-06-05T02:02:11;2.95;;;2.00;;
75716;SDS011;64333;50.138;14.332;2023-06-05T02:04:39;3.10;;;1.73;;
75716;SDS011;64333;50.138;14.332;2023-06-05T02:07:05;2.72;;;1.70;;
75716;SDS011;64333;50.138;14.332;2023-06-05T02:09:31;2.65;;;2.08;;
75716;SDS011;64333;50.138;14.332;2023-06-05T02:11:59;2.38;;;1.65;;
75716;SDS011;64333;50.138;14.332;2023-06-05T02:14:29;3.22;;;1.88;;
75716;SDS011;64333;50.138;14.332;2023-06-05T02:16:56;2.90;;;1.60;;
75716;SDS011;64333;50.138;14.332;2023-06-05T02:19:22;3.58;;;1.70;;
75716;SDS011;64333;50.138;14.332;2023-06-05T02:21:48;5.20;;;2.10;;
75716;SDS011;64333;50.138;14.332;2023-06-05T02:24:13;2.60;;;1.90;;
75716;SDS011;64333;50.138;14.332;2023-06-05T02:26:38;3.58;;;2.35;;
75716;SDS011;64333;50.138;14.332;2023-06-05T02:29:04;3.53;;;2.05;;
75716;SDS011;64333;50.138;14.332;2023-06-05T02:31:30;3.17;;;1.88;;
75716;SDS011;64333;50.138;14.332;2023-06-05T02:33:55;4.45;;;2.10;;
75716;SDS011;64333;50.138;14.332;2023-06-05T02:36:22;3.15;;;1.92;;
75716;SDS011;64333;50.138;14.332;2023-06-05T02:38:49;2.65;;;1.67;;
75716;SDS011;64333;50.138;14.332;2023-06-05T02:41:15;3.38;;;2.45;;
75716;SDS011;64333;50.138;14.332;2023-06-05T02:43:44;2.58;;;1.60;;
75716;SDS011;64333;50.138;14.332;2023-06-05T02:46:10;3.53;;;2.00;;
75716;SDS011;64333;50.138;14.332;2023-06-05T02:48:36;2.05;;;1.50;;
75716;SDS011;64333;50.138;14.332;2023-06-05T02:51:01;3.45;;;1.80;;
75716;SDS011;64333;50.138;14.332;2023-06-05T02:53:28;2.78;;;2.22;;
75716;SDS011;64333;50.138;14.332;2023-06-05T02:55:53;2.58;;;2.10;;
75716;SDS011;64333;50.138;14.332;2023-06-05T02:58:20;3.55;;;2.17;;
75716;SDS011;64333;50.138;14.332;2023-06-05T03:00:46;3.25;;;2.08;;
75716;SDS011;64333;50.138;14.332;2023-06-05T03:03:12;3.15;;;2.05;;
75716;SDS011;64333;50.138;14.332;2023-06-05T03:05:38;4.63;;;2.25;;
75716;SDS011;64333;50.138;14.332;2023-06-05T03:08:03;3.58;;;2.17;;
75716;SDS011;64333;50.138;14.332;2023-06-05T03:10:29;3.40;;;2.10;;
75716;SDS011;64333;50.138;14.332;2023-06-05T03:12:54;4.25;;;2.22;;
75716;SDS011;64333;50.138;14.332;2023-06-05T03:15:20;4.90;;;2.97;;
75716;SDS011;64333;50.138;14.332;2023-06-05T03:17:45;3.65;;;2.03;;
75716;SDS011;64333;50.138;14.332;2023-06-05T03:20:11;5.10;;;2.08;;
75716;SDS011;64333;50.138;14.332;2023-06-05T03:22:37;3.63;;;2.15;;
75716;SDS011;64333;50.138;14.332;2023-06-05T03:25:03;4.28;;;2.13;;
75716;SDS011;64333;50.138;14.332;2023-06-05T03:27:29;5.13;;;2.20;;
75716;SDS011;64333;50.138;14.332;2023-06-05T03:29:55;3.58;;;2.33;;
75716;SDS011;64333;50.138;14.332;2023-06-05T03:32:21;3.42;;;2.20;;
75716;SDS011;64333;50.138;14.332;2023-06-05T03:34:46;2.83;;;2.03;;
75716;SDS011;64333;50.138;14.332;2023-06-05T03:37:13;4.18;;;2.28;;
75716;SDS011;64333;50.138;14.332;2023-06-05T03:39:39;3.78;;;2.10;;
75716;SDS011;64333;50.138;14.332;2023-06-05T03:42:05;4.03;;;2.20;;
75716;SDS011;64333;50.138;14.332;2023-06-05T03:44:34;4.53;;;2.47;;
75716;SDS011;64333;50.138;14.332;2023-06-05T03:47:00;4.13;;;2.30;;
75716;SDS011;64333;50.138;14.332;2023-06-05T03:49:25;3.40;;;2.20;;
75716;SDS011;64333;50.138;14.332;2023-06-05T03:51:51;5.05;;;2.25;;
75716;SDS011;64333;50.138;14.332;2023-06-05T03:54:17;3.58;;;2.33;;
75716;SDS011;64333;50.138;14.332;2023-06-05T03:56:43;5.00;;;2.30;;
75716;SDS011;64333;50.138;14.332;2023-06-05T03:59:14;4.13;;;2.33;;
75716;SDS011;64333;50.138;14.332;2023-06-05T04:01:47;5.35;;;2.33;;
75716;SDS011;64333;50.138;14.332;2023-06-05T04:04:13;4.55;;;2.55;;
75716;SDS011;64333;50.138;14.332;2023-06-05T04:06:39;3.95;;;2.50;;
75716;SDS011;64333;50.138;14.332;2023-06-05T04:09:05;4.15;;;2.53;;
75716;SDS011;64333;50.138;14.332;2023-06-05T04:11:37;4.07;;;2.42;;
75716;SDS011;64333;50.138;14.332;2023-06-05T04:14:04;4.22;;;2.55;;
75716;SDS011;64333;50.138;14.332;2023-06-05T04:16:29;6.18;;;2.63;;
75716;SDS011;64333;50.138;14.332;2023-06-05T04:18:56;5.75;;;3.10;;
75716;SDS011;64333;50.138;14.332;2023-06-05T04:21:21;4.57;;;2.72;;
75716;SDS011;64333;50.138;14.332;2023-06-05T04:23:47;9.02;;;4.88;;
75716;SDS011;64333;50.138;14.332;2023-06-05T04:26:12;6.07;;;2.80;;
75716;SDS011;64333;50.138;14.332;2023-06-05T04:28:40;3.45;;;2.55;;
75716;SDS011;64333;50.138;14.332;2023-06-05T04:31:07;4.95;;;2.97;;
75716;SDS011;64333;50.138;14.332;2023-06-05T04:33:32;4.75;;;2.35;;
75716;SDS011;64333;50.138;14.332;2023-06-05T04:35:57;5.78;;;3.10;;
75716;SDS011;64333;50.138;14.332;2023-06-05T04:38:23;9.00;;;4.10;;
75716;SDS011;64333;50.138;14.332;2023-06-05T04:40:48;7.72;;;3.13;;
75716;SDS011;64333;50.138;14.332;2023-06-05T04:43:14;5.30;;;3.17;;
75716;SDS011;64333;50.138;14.332;2023-06-05T04:45:40;7.72;;;4.40;;
75716;SDS011;64333;50.138;14.332;2023-06-05T04:48:06;4.80;;;2.78;;
75716;SDS011;64333;50.138;14.332;2023-06-05T04:50:31;4.32;;;3.05;;
75716;SDS011;64333;50.138;14.332;2023-06-05T04:52:58;4.53;;;2.83;;
75716;SDS011;64333;50.138;14.332;2023-06-05T04:55:24;6.18;;;2.83;;
75716;SDS011;64333;50.138;14.332;2023-06-05T04:57:49;4.10;;;3.35;;
75716;SDS011;64333;50.138;14.332;2023-06-05T05:00:16;5.57;;;2.95;;
75716;SDS011;64333;50.138;14.332;2023-06-05T05:02:42;4.22;;;3.10;;
75716;SDS011;64333;50.138;14.332;2023-06-05T05:05:08;4.45;;;2.85;;
75716;SDS011;64333;50.138;14.332;2023-06-05T05:07:33;6.30;;;3.92;;
75716;SDS011;64333;50.138;14.332;2023-06-05T05:10:00;6.95;;;3.53;;
75716;SDS011;64333;50.138;14.332;2023-06-05T05:12:26;5.40;;;2.90;;
75716;SDS011;64333;50.138;14.332;2023-06-05T05:14:51;6.25;;;2.95;;
75716;SDS011;64333;50.138;14.332;2023-06-05T05:17:17;4.45;;;2.55;;
75716;SDS011;64333;50.138;14.332;2023-06-05T05:19:44;4.15;;;2.50;;
75716;SDS011;64333;50.138;14.332;2023-06-05T05:22:09;4.45;;;2.72;;
75716;SDS011;64333;50.138;14.332;2023-06-05T05:24:36;5.05;;;2.58;;
75716;SDS011;64333;50.138;14.332;2023-06-05T05:27:02;5.07;;;2.85;;
75716;SDS011;64333;50.138;14.332;2023-06-05T05:29:27;4.40;;;2.80;;
75716;SDS011;64333;50.138;14.332;2023-06-05T05:31:53;3.10;;;2.40;;
75716;SDS011;64333;50.138;14.332;2023-06-05T05:34:20;4.47;;;3.00;;
75716;SDS011;64333;50.138;14.332;2023-06-05T05:36:46;4.60;;;3.22;;
75716;SDS011;64333;50.138;14.332;2023-06-05T05:39:11;4.35;;;2.90;;
75716;SDS011;64333;50.138;14.332;2023-06-05T05:41:37;5.20;;;2.92;;
75716;SDS011;64333;50.138;14.332;2023-06-05T05:44:02;3.72;;;3.05;;
75716;SDS011;64333;50.138;14.332;2023-06-05T05:46:28;4.75;;;2.97;;
75716;SDS011;64333;50.138;14.332;2023-06-05T05:48:53;4.82;;;3.28;;
75716;SDS011;64333;50.138;14.332;2023-06-05T05:51:19;4.32;;;3.03;;
75716;SDS011;64333;50.138;14.332;2023-06-05T05:53:46;4.03;;;2.70;;
75716;SDS011;64333;50.138;14.332;2023-06-05T05:56:11;7.25;;;2.90;;
75716;SDS011;64333;50.138;14.332;2023-06-05T05:58:36;6.97;;;2.72;;
75716;SDS011;64333;50.138;14.332;2023-06-05T06:01:02;6.30;;;2.70;;
75716;SDS011;64333;50.138;14.332;2023-06-05T06:03:27;3.38;;;2.75;;
75716;SDS011;64333;50.138;14.332;2023-06-05T06:05:53;4.97;;;2.95;;
75716;SDS011;64333;50.138;14.332;2023-06-05T06:08:19;6.00;;;2.90;;
75716;SDS011;64333;50.138;14.332;2023-06-05T06:10:45;4.90;;;2.97;;
75716;SDS011;64333;50.138;14.332;2023-06-05T06:13:11;5.85;;;2.95;;
75716;SDS011;64333;50.138;14.332;2023-06-05T06:15:36;5.72;;;2.75;;
75716;SDS011;64333;50.138;14.332;2023-06-05T06:18:03;4.35;;;2.67;;
75716;SDS011;64333;50.138;14.332;2023-06-05T06:20:30;6.13;;;3.53;;
75716;SDS011;64333;50.138;14.332;2023-06-05T06:22:56;6.45;;;3.33;;
75716;SDS011;64333;50.138;14.332;2023-06-05T06:25:22;5.40;;;3.15;;
75716;SDS011;64333;50.138;14.332;2023-06-05T06:27:51;9.82;;;3.55;;
75716;SDS011;64333;50.138;14.332;2023-06-05T06:30:18;4.25;;;2.70;;
75716;SDS011;64333;50.138;14.332;2023-06-05T06:32:44;6.85;;;3.33;;
75716;SDS011;64333;50.138;14.332;2023-06-05T06:35:10;4.50;;;2.35;;
75716;SDS011;64333;50.138;14.332;2023-06-05T06:37:38;5.68;;;2.80;;
75716;SDS011;64333;50.138;14.332;2023-06-05T06:40:04;4.88;;;2.35;;
75716;SDS011;64333;50.138;14.332;2023-06-05T06:42:36;4.18;;;2.63;;
75716;SDS011;64333;50.138;14.332;2023-06-05T06:45:02;6.55;;;2.78;;
75716;SDS011;64333;50.138;14.332;2023-06-05T06:47:28;3.35;;;2.80;;
75716;SDS011;64333;50.138;14.332;2023-06-05T06:49:54;12.40;;;3.95;;
75716;SDS011;64333;50.138;14.332;2023-06-05T06:52:20;5.15;;;3.05;;
75716;SDS011;64333;50.138;14.332;2023-06-05T06:54:46;4.65;;;2.55;;
75716;SDS011;64333;50.138;14.332;2023-06-05T06:57:11;7.10;;;3.22;;
75716;SDS011;64333;50.138;14.332;2023-06-05T06:59:37;6.03;;;3.15;;
75716;SDS011;64333;50.138;14.332;2023-06-05T07:02:12;4.68;;;2.78;;
75716;SDS011;64333;50.138;14.332;2023-06-05T07:04:39;6.63;;;2.70;;
75716;SDS011;64333;50.138;14.332;2023-06-05T07:07:07;3.65;;;2.80;;
75716;SDS011;64333;50.138;14.332;2023-06-05T07:09:34;4.15;;;2.58;;
75716;SDS011;64333;50.138;14.332;2023-06-05T07:12:00;4.55;;;2.72;;
75716;SDS011;64333;50.138;14.332;2023-06-05T07:14:30;5.57;;;2.90;;
75716;SDS011;64333;50.138;14.332;2023-06-05T07:16:56;3.85;;;2.60;;
75716;SDS011;64333;50.138;14.332;2023-06-05T07:19:23;7.45;;;2.60;;
75716;SDS011;64333;50.138;14.332;2023-06-05T07:21:49;6.47;;;3.50;;
75716;SDS011;64333;50.138;14.332;2023-06-05T07:24:14;4.30;;;2.65;;
75716;SDS011;64333;50.138;14.332;2023-06-05T07:26:39;5.07;;;2.65;;
75716;SDS011;64333;50.138;14.332;2023-06-05T07:29:05;4.70;;;3.08;;
75716;SDS011;64333;50.138;14.332;2023-06-05T07:31:30;4.45;;;2.30;;
75716;SDS011;64333;50.138;14.332;2023-06-05T07:33:56;5.00;;;2.38;;
75716;SDS011;64333;50.138;14.332;2023-06-05T07:36:21;4.28;;;2.42;;
75716;SDS011;64333;50.138;14.332;2023-06-05T07:38:47;5.05;;;2.35;;
75716;SDS011;64333;50.138;14.332;2023-06-05T07:41:13;3.95;;;2.50;;
75716;SDS011;64333;50.138;14.332;2023-06-05T07:43:38;5.82;;;2.60;;
75716;SDS011;64333;50.138;14.332;2023-06-05T07:46:05;3.78;;;2.20;;
75716;SDS011;64333;50.138;14.332;2023-06-05T07:48:31;7.05;;;2.97;;
75716;SDS011;64333;50.138;14.332;2023-06-05T07:50:56;4.18;;;2.53;;
75716;SDS011;64333;50.138;14.332;2023-06-05T07:53:22;6.75;;;3.22;;
75716;SDS011;64333;50.138;14.332;2023-06-05T07:55:48;3.72;;;2.30;;
75716;SDS011;64333;50.138;14.332;2023-06-05T07:58:13;4.53;;;2.72;;
75716;SDS011;64333;50.138;14.332;2023-06-05T08:00:40;3.78;;;2.20;;
75716;SDS011;64333;50.138;14.332;2023-06-05T08:03:12;3.50;;;2.17;;
75716;SDS011;64333;50.138;14.332;2023-06-05T08:05:48;4.30;;;2.20;;
75716;SDS011;64333;50.138;14.332;2023-06-05T08:08:15;3.13;;;2.20;;
75716;SDS011;64333;50.138;14.332;2023-06-05T08:10:40;4.07;;;2.97;;
75716;SDS011;64333;50.138;14.332;2023-06-05T08:13:07;3.83;;;2.40;;
75716;SDS011;64333;50.138;14.332;2023-06-05T08:15:33;4.28;;;2.40;;
75716;SDS011;64333;50.138;14.332;2023-06-05T08:17:58;4.18;;;2.42;;
75716;SDS011;64333;50.138;14.332;2023-06-05T08:20:24;4.40;;;2.47;;
75716;SDS011;64333;50.138;14.332;2023-06-05T08:22:49;3.25;;;2.72;;
75716;SDS011;64333;50.138;14.332;2023-06-05T08:25:15;5.22;;;2.53;;
75716;SDS011;64333;50.138;14.332;2023-06-05T08:27:40;3.42;;;2.28;;
75716;SDS011;64333;50.138;14.332;2023-06-05T08:30:06;4.82;;;2.55;;
75716;SDS011;64333;50.138;14.332;2023-06-05T08:32:32;4.32;;;2.47;;
75716;SDS011;64333;50.138;14.332;2023-06-05T08:34:58;3.40;;;2.55;;
75716;SDS011;64333;50.138;14.332;2023-06-05T08:37:23;6.78;;;2.78;;
75716;SDS011;64333;50.138;14.332;2023-06-05T08:39:49;5.53;;;2.50;;
75716;SDS011;64333;50.138;14.332;2023-06-05T08:42:15;3.88;;;2.40;;
75716;SDS011;64333;50.138;14.332;2023-06-05T08:44:43;3.28;;;2.30;;
75716;SDS011;64333;50.138;14.332;2023-06-05T08:47:12;6.20;;;2.58;;
75716;SDS011;64333;50.138;14.332;2023-06-05T08:49:40;4.10;;;2.45;;
75716;SDS011;64333;50.138;14.332;2023-06-05T08:52:06;6.65;;;2.80;;
75716;SDS011;64333;50.138;14.332;2023-06-05T08:54:37;6.28;;;3.17;;
75716;SDS011;64333;50.138;14.332;2023-06-05T08:57:04;5.43;;;2.60;;
75716;SDS011;64333;50.138;14.332;2023-06-05T08:59:33;5.18;;;2.58;;
75716;SDS011;64333;50.138;14.332;2023-06-05T09:01:59;4.03;;;2.75;;
75716;SDS011;64333;50.138;14.332;2023-06-05T09:04:25;4.40;;;2.58;;
75716;SDS011;64333;50.138;14.332;2023-06-05T09:06:54;3.60;;;2.30;;
75716;SDS011;64333;50.138;14.332;2023-06-05T09:09:24;5.28;;;2.45;;
75716;SDS011;64333;50.138;14.332;2023-06-05T09:14:31;4.72;;;2.80;;
75716;SDS011;64333;50.138;14.332;2023-06-05T09:16:58;4.32;;;2.40;;
75716;SDS011;64333;50.138;14.332;2023-06-05T09:19:25;4.07;;;3.00;;
75716;SDS011;64333;50.138;14.332;2023-06-05T09:22:00;5.05;;;2.67;;
75716;SDS011;64333;50.138;14.332;2023-06-05T09:24:26;4.75;;;2.47;;
75716;SDS011;64333;50.138;14.332;2023-06-05T09:27:00;4.38;;;2.67;;
75716;SDS011;64333;50.138;14.332;2023-06-05T09:29:29;5.80;;;2.60;;
75716;SDS011;64333;50.138;14.332;2023-06-05T09:31:56;3.10;;;2.30;;
75716;SDS011;64333;50.138;14.332;2023-06-05T09:34:27;3.78;;;2.63;;
75716;SDS011;64333;50.138;14.332;2023-06-05T09:36:57;6.43;;;2.63;;
75716;SDS011;64333;50.138;14.332;2023-06-05T09:39:24;3.53;;;2.40;;
75716;SDS011;64333;50.138;14.332;2023-06-05T09:41:51;5.25;;;2.28;;
75716;SDS011;64333;50.138;14.332;2023-06-05T09:44:17;4.97;;;3.00;;
75716;SDS011;64333;50.138;14.332;2023-06-05T09:49:15;3.08;;;2.50;;
75716;SDS011;64333;50.138;14.332;2023-06-05T09:51:43;3.70;;;2.50;;
75716;SDS011;64333;50.138;14.332;2023-06-05T09:54:08;4.90;;;2.50;;
75716;SDS011;64333;50.138;14.332;2023-06-05T09:56:36;3.58;;;2.33;;
75716;SDS011;64333;50.138;14.332;2023-06-05T09:59:04;3.58;;;2.45;;
75716;SDS011;64333;50.138;14.332;2023-06-05T10:01:31;4.50;;;2.30;;
75716;SDS011;64333;50.138;14.332;2023-06-05T10:04:00;4.07;;;2.63;;
75716;SDS011;64333;50.138;14.332;2023-06-05T10:06:31;4.80;;;2.42;;
75716;SDS011;64333;50.138;14.332;2023-06-05T10:08:57;2.72;;;2.38;;
75716;SDS011;64333;50.138;14.332;2023-06-05T10:11:25;4.05;;;2.30;;
75716;SDS011;64333;50.138;14.332;2023-06-05T10:13:52;4.68;;;2.40;;
75716;SDS011;64333;50.138;14.332;2023-06-05T10:16:18;3.42;;;2.55;;
75716;SDS011;64333;50.138;14.332;2023-06-05T10:18:46;3.33;;;2.28;;
75716;SDS011;64333;50.138;14.332;2023-06-05T10:21:15;4.88;;;2.58;;
75716;SDS011;64333;50.138;14.332;2023-06-05T10:23:43;4.88;;;2.42;;
75716;SDS011;64333;50.138;14.332;2023-06-05T10:26:22;3.15;;;2.30;;
75716;SDS011;64333;50.138;14.332;2023-06-05T10:29:12;3.65;;;2.72;;
75716;SDS011;64333;50.138;14.332;2023-06-05T10:31:48;4.28;;;2.63;;
75716;SDS011;64333;50.138;14.332;2023-06-05T10:37:03;3.88;;;2.67;;
75716;SDS011;64333;50.138;14.332;2023-06-05T10:39:32;5.88;;;2.65;;
75716;SDS011;64333;50.138;14.332;2023-06-05T10:41:59;7.05;;;2.88;;
75716;SDS011;64333;50.138;14.332;2023-06-05T10:44:38;4.93;;;2.35;;
75716;SDS011;64333;50.138;14.332;2023-06-05T10:52:48;3.03;;;2.30;;
75716;SDS011;64333;50.138;14.332;2023-06-05T10:55:14;5.00;;;2.80;;
75716;SDS011;64333;50.138;14.332;2023-06-05T11:00:33;4.03;;;2.53;;
75716;SDS011;64333;50.138;14.332;2023-06-05T11:03:00;3.95;;;2.60;;
75716;SDS011;64333;50.138;14.332;2023-06-05T11:05:26;4.47;;;2.60;;
75716;SDS011;64333;50.138;14.332;2023-06-05T11:08:11;4.45;;;2.65;;
75716;SDS011;64333;50.138;14.332;2023-06-05T11:11:02;8.20;;;3.30;;
75716;SDS011;64333;50.138;14.332;2023-06-05T11:18:51;6.30;;;3.03;;
75716;SDS011;64333;50.138;14.332;2023-06-05T11:21:16;5.07;;;3.08;;
75716;SDS011;64333;50.138;14.332;2023-06-05T11:23:50;3.75;;;3.03;;
75716;SDS011;64333;50.138;14.332;2023-06-05T11:26:41;3.90;;;2.70;;
75716;SDS011;64333;50.138;14.332;2023-06-05T11:29:10;4.50;;;2.90;;
75716;SDS011;64333;50.138;14.332;2023-06-05T11:31:37;6.10;;;2.90;;
75716;SDS011;64333;50.138;14.332;2023-06-05T11:34:03;4.55;;;2.75;;
75716;SDS011;64333;50.138;14.332;2023-06-05T11:36:36;4.32;;;2.67;;
75716;SDS011;64333;50.138;14.332;2023-06-05T11:39:01;4.32;;;2.72;;
75716;SDS011;64333;50.138;14.332;2023-06-05T11:41:27;3.95;;;2.88;;
75716;SDS011;64333;50.138;14.332;2023-06-05T11:43:52;3.85;;;3.10;;
75716;SDS011;64333;50.138;14.332;2023-06-05T11:46:18;5.20;;;3.67;;
75716;SDS011;64333;50.138;14.332;2023-06-05T11:48:44;3.45;;;2.53;;
75716;SDS011;64333;50.138;14.332;2023-06-05T11:51:10;5.40;;;2.70;;
75716;SDS011;64333;50.138;14.332;2023-06-05T11:53:42;7.05;;;3.20;;
75716;SDS011;64333;50.138;14.332;2023-06-05T11:56:13;5.80;;;3.20;;
75716;SDS011;64333;50.138;14.332;2023-06-05T11:58:41;6.90;;;3.65;;
75716;SDS011;64333;50.138;14.332;2023-06-05T12:01:08;5.53;;;3.42;;
75716;SDS011;64333;50.138;14.332;2023-06-05T12:03:38;4.88;;;3.53;;
75716;SDS011;64333;50.138;14.332;2023-06-05T12:06:04;5.38;;;3.40;;
75716;SDS011;64333;50.138;14.332;2023-06-05T12:08:31;6.03;;;4.20;;
75716;SDS011;64333;50.138;14.332;2023-06-05T12:10:58;4.90;;;4.05;;
75716;SDS011;64333;50.138;14.332;2023-06-05T12:16:16;5.07;;;3.85;;
75716;SDS011;64333;50.138;14.332;2023-06-05T12:18:43;5.15;;;4.15;;
75716;SDS011;64333;50.138;14.332;2023-06-05T12:21:19;5.03;;;4.18;;
75716;SDS011;64333;50.138;14.332;2023-06-05T12:23:46;7.28;;;5.00;;
75716;SDS011;64333;50.138;14.332;2023-06-05T12:26:11;8.85;;;4.95;;
75716;SDS011;64333;50.138;14.332;2023-06-05T12:28:37;7.53;;;5.47;;
75716;SDS011;64333;50.138;14.332;2023-06-05T12:31:02;9.48;;;5.85;;
75716;SDS011;64333;50.138;14.332;2023-06-05T12:33:28;11.65;;;7.07;;
75716;SDS011;64333;50.138;14.332;2023-06-05T12:36:05;11.23;;;7.40;;
75716;SDS011;64333;50.138;14.332;2023-06-05T12:38:41;12.63;;;8.10;;
75716;SDS011;64333;50.138;14.332;2023-06-05T12:41:08;13.38;;;8.27;;
75716;SDS011;64333;50.138;14.332;2023-06-05T12:43:33;12.65;;;9.57;;
75716;SDS011;64333;50.138;14.332;2023-06-05T12:46:00;14.75;;;9.63;;
75716;SDS011;64333;50.138;14.332;2023-06-05T12:48:25;14.10;;;9.63;;
75716;SDS011;64333;50.138;14.332;2023-06-05T12:50:51;15.32;;;10.35;;
75716;SDS011;64333;50.138;14.332;2023-06-05T12:53:17;15.75;;;9.93;;
75716;SDS011;64333;50.138;14.332;2023-06-05T12:55:43;11.90;;;8.45;;
75716;SDS011;64333;50.138;14.332;2023-06-05T12:58:08;11.90;;;7.40;;
75716;SDS011;64333;50.138;14.332;2023-06-05T13:00:34;10.77;;;8.18;;
75716;SDS011;64333;50.138;14.332;2023-06-05T13:02:59;13.85;;;9.52;;
75716;SDS011;64333;50.138;14.332;2023-06-05T13:05:25;17.15;;;10.07;;
75716;SDS011;64333;50.138;14.332;2023-06-05T13:07:51;11.88;;;9.43;;
75716;SDS011;64333;50.138;14.332;2023-06-05T13:10:19;11.65;;;8.90;;
75716;SDS011;64333;50.138;14.332;2023-06-05T13:12:44;14.38;;;9.35;;
75716;SDS011;64333;50.138;14.332;2023-06-05T13:15:10;12.07;;;8.80;;
75716;SDS011;64333;50.138;14.332;2023-06-05T13:17:36;10.52;;;8.35;;
75716;SDS011;64333;50.138;14.332;2023-06-05T13:20:03;11.52;;;7.57;;
75716;SDS011;64333;50.138;14.332;2023-06-05T13:22:39;13.10;;;9.25;;
75716;SDS011;64333;50.138;14.332;2023-06-05T13:25:06;12.40;;;8.63;;
75716;SDS011;64333;50.138;14.332;2023-06-05T13:27:32;10.48;;;8.25;;
75716;SDS011;64333;50.138;14.332;2023-06-05T13:29:58;15.77;;;9.57;;
75716;SDS011;64333;50.138;14.332;2023-06-05T13:32:23;14.25;;;9.82;;
75716;SDS011;64333;50.138;14.332;2023-06-05T13:34:49;14.73;;;9.65;;
75716;SDS011;64333;50.138;14.332;2023-06-05T13:37:15;14.55;;;10.25;;
75716;SDS011;64333;50.138;14.332;2023-06-05T13:39:40;15.55;;;11.73;;
75716;SDS011;64333;50.138;14.332;2023-06-05T13:42:06;13.52;;;11.48;;
75716;SDS011;64333;50.138;14.332;2023-06-05T13:44:31;16.27;;;12.32;;
75716;SDS011;64333;50.138;14.332;2023-06-05T13:46:57;20.95;;;13.23;;
75716;SDS011;64333;50.138;14.332;2023-06-05T13:49:22;18.63;;;14.40;;
75716;SDS011;64333;50.138;14.332;2023-06-05T13:51:48;18.23;;;11.40;;
75716;SDS011;64333;50.138;14.332;2023-06-05T13:54:13;16.33;;;12.43;;
75716;SDS011;64333;50.138;14.332;2023-06-05T13:56:38;16.48;;;12.07;;
75716;SDS011;64333;50.138;14.332;2023-06-05T13:59:04;17.25;;;13.13;;
75716;SDS011;64333;50.138;14.332;2023-06-05T14:01:29;14.05;;;11.30;;
75716;SDS011;64333;50.138;14.332;2023-06-05T14:03:54;16.80;;;12.77;;
75716;SDS011;64333;50.138;14.332;2023-06-05T14:06:20;16.70;;;12.18;;
75716;SDS011;64333;50.138;14.332;2023-06-05T14:08:47;18.05;;;13.23;;
75716;SDS011;64333;50.138;14.332;2023-06-05T14:11:13;18.00;;;13.00;;
75716;SDS011;64333;50.138;14.332;2023-06-05T14:13:39;20.02;;;13.18;;
75716;SDS011;64333;50.138;14.332;2023-06-05T14:16:04;19.27;;;13.98;;
75716;SDS011;64333;50.138;14.332;2023-06-05T14:18:30;17.65;;;14.02;;
75716;SDS011;64333;50.138;14.332;2023-06-05T14:20:56;15.88;;;10.60;;
75716;SDS011;64333;50.138;14.332;2023-06-05T14:23:21;13.80;;;10.80;;
75716;SDS011;64333;50.138;14.332;2023-06-05T14:25:50;15.35;;;10.30;;
75716;SDS011;64333;50.138;14.332;2023-06-05T14:28:16;18.52;;;12.00;;
75716;SDS011;64333;50.138;14.332;2023-06-05T14:30:41;16.05;;;10.60;;
75716;SDS011;64333;50.138;14.332;2023-06-05T14:33:06;15.80;;;11.82;;
75716;SDS011;64333;50.138;14.332;2023-06-05T14:35:32;17.92;;;11.88;;
75716;SDS011;64333;50.138;14.332;2023-06-05T14:37:57;13.35;;;10.55;;
75716;SDS011;64333;50.138;14.332;2023-06-05T14:40:23;14.55;;;11.07;;
75716;SDS011;64333;50.138;14.332;2023-06-05T14:42:51;12.43;;;9.55;;
75716;SDS011;64333;50.138;14.332;2023-06-05T14:45:17;14.90;;;10.95;;
75716;SDS011;64333;50.138;14.332;2023-06-05T14:47:42;16.65;;;12.43;;
75716;SDS011;64333;50.138;14.332;2023-06-05T14:50:09;19.85;;;13.27;;
75716;SDS011;64333;50.138;14.332;2023-06-05T14:52:35;18.15;;;12.80;;
75716;SDS011;64333;50.138;14.332;2023-06-05T14:55:01;19.42;;;13.07;;
75716;SDS011;64333;50.138;14.332;2023-06-05T14:57:27;19.35;;;14.10;;
75716;SDS011;64333;50.138;14.332;2023-06-05T14:59:52;17.05;;;13.15;;
75716;SDS011;64333;50.138;14.332;2023-06-05T15:02:20;22.98;;;15.32;;